﻿<?xml version="1.0" encoding="UTF-8" standalone="no" ?>
<gpx xmlns="http://www.topografix.com/GPX/1/1" creator="CompeGPS" version="1.1" xmlns:xsi="http://www.w3.org/2001/XMLSchema-instance" xsi:schemaLocation="http://www.topografix.com/GPX/1/1 http://www.topografix.com/GPX/1/1/gpx.xsd http://www.garmin.com/xmlschemas/GpxExtensions/v3 http://www.garmin.com/xmlschemas/GpxExtensionsv3.xsd http://www.garmin.com/xmlschemas/TrackPointExtension/v1 http://www.garmin.com/xmlschemas/TrackPointExtensionv1.xsd" xmlns:gpxtpx="http://www.garmin.com/xmlschemas/TrackPointExtension/v1">
  <metadata>
    <link href="http://www.compegps.com">
      <text>CompeGPS TEAM, SL</text>
    </link>
    <time>2014-01-21T15:24:57Z</time>
    <bounds maxlat="43.527541" maxlon="1.425901" minlat="43.517761" minlon="1.410831"/>
  </metadata>
  <trk>
    <name>sicoval bac portet</name>
    <trkseg>
      <trkpt lat="43.522764" lon="1.421476">
        <ele>142.5</ele>
        <time>2014-01-21T13:13:20Z</time>
      </trkpt>
      <trkpt lat="43.522881" lon="1.421362">
        <ele>142.6</ele>
        <time>2014-01-21T13:13:34Z</time>
      </trkpt>
      <trkpt lat="43.522959" lon="1.421206">
        <ele>142.5</ele>
        <time>2014-01-21T13:14:22Z</time>
      </trkpt>
      <trkpt lat="43.523052" lon="1.421130">
        <ele>142.5</ele>
        <time>2014-01-21T13:14:33Z</time>
      </trkpt>
      <trkpt lat="43.523085" lon="1.421054">
        <ele>142.9</ele>
        <time>2014-01-21T13:14:57Z</time>
      </trkpt>
      <trkpt lat="43.523104" lon="1.420934">
        <ele>142.6</ele>
        <time>2014-01-21T13:15:07Z</time>
      </trkpt>
      <trkpt lat="43.523152" lon="1.420821">
        <ele>142.8</ele>
        <time>2014-01-21T13:15:17Z</time>
      </trkpt>
      <trkpt lat="43.523229" lon="1.420656">
        <ele>141.9</ele>
        <time>2014-01-21T13:16:15Z</time>
      </trkpt>
      <trkpt lat="43.523283" lon="1.420695">
        <ele>142.4</ele>
        <time>2014-01-21T13:16:44Z</time>
      </trkpt>
      <trkpt lat="43.523372" lon="1.420767">
        <ele>142.5</ele>
        <time>2014-01-21T13:16:57Z</time>
      </trkpt>
      <trkpt lat="43.523453" lon="1.420894">
        <ele>142.5</ele>
        <time>2014-01-21T13:17:07Z</time>
      </trkpt>
      <trkpt lat="43.523511" lon="1.420979">
        <ele>142.5</ele>
        <time>2014-01-21T13:17:15Z</time>
      </trkpt>
      <trkpt lat="43.523578" lon="1.421068">
        <ele>142.4</ele>
        <time>2014-01-21T13:17:22Z</time>
      </trkpt>
      <trkpt lat="43.523653" lon="1.421186">
        <ele>142.3</ele>
        <time>2014-01-21T13:17:32Z</time>
      </trkpt>
      <trkpt lat="43.523739" lon="1.421305">
        <ele>141.9</ele>
        <time>2014-01-21T13:17:41Z</time>
      </trkpt>
      <trkpt lat="43.523813" lon="1.421405">
        <ele>141.8</ele>
        <time>2014-01-21T13:17:49Z</time>
      </trkpt>
      <trkpt lat="43.523897" lon="1.421496">
        <ele>141.7</ele>
        <time>2014-01-21T13:17:57Z</time>
      </trkpt>
      <trkpt lat="43.524008" lon="1.421570">
        <ele>141.1</ele>
        <time>2014-01-21T13:18:07Z</time>
      </trkpt>
      <trkpt lat="43.524120" lon="1.421682">
        <ele>140.7</ele>
        <time>2014-01-21T13:18:16Z</time>
      </trkpt>
      <trkpt lat="43.524185" lon="1.421837">
        <ele>140.9</ele>
        <time>2014-01-21T13:18:26Z</time>
      </trkpt>
      <trkpt lat="43.524251" lon="1.422004">
        <ele>140.8</ele>
        <time>2014-01-21T13:18:37Z</time>
      </trkpt>
      <trkpt lat="43.524288" lon="1.422189">
        <ele>140.4</ele>
        <time>2014-01-21T13:18:48Z</time>
      </trkpt>
      <trkpt lat="43.524260" lon="1.422340">
        <ele>140.5</ele>
        <time>2014-01-21T13:18:57Z</time>
      </trkpt>
      <trkpt lat="43.524357" lon="1.422480">
        <ele>140.9</ele>
        <time>2014-01-21T13:19:07Z</time>
      </trkpt>
      <trkpt lat="43.524455" lon="1.422626">
        <ele>140.6</ele>
        <time>2014-01-21T13:19:20Z</time>
      </trkpt>
      <trkpt lat="43.524503" lon="1.422843">
        <ele>140.2</ele>
        <time>2014-01-21T13:19:31Z</time>
      </trkpt>
      <trkpt lat="43.524527" lon="1.423013">
        <ele>140.6</ele>
        <time>2014-01-21T13:19:40Z</time>
      </trkpt>
      <trkpt lat="43.524564" lon="1.423173">
        <ele>140.6</ele>
        <time>2014-01-21T13:19:51Z</time>
      </trkpt>
      <trkpt lat="43.524616" lon="1.423401">
        <ele>140.7</ele>
        <time>2014-01-21T13:20:03Z</time>
      </trkpt>
      <trkpt lat="43.524685" lon="1.423571">
        <ele>140.8</ele>
        <time>2014-01-21T13:20:17Z</time>
      </trkpt>
      <trkpt lat="43.524783" lon="1.423681">
        <ele>140.4</ele>
        <time>2014-01-21T13:20:28Z</time>
      </trkpt>
      <trkpt lat="43.524825" lon="1.423829">
        <ele>140.1</ele>
        <time>2014-01-21T13:20:38Z</time>
      </trkpt>
      <trkpt lat="43.524880" lon="1.423979">
        <ele>139.9</ele>
        <time>2014-01-21T13:20:48Z</time>
      </trkpt>
      <trkpt lat="43.524905" lon="1.424156">
        <ele>140.4</ele>
        <time>2014-01-21T13:20:59Z</time>
      </trkpt>
      <trkpt lat="43.524948" lon="1.424355">
        <ele>140.2</ele>
        <time>2014-01-21T13:21:10Z</time>
      </trkpt>
      <trkpt lat="43.525021" lon="1.424498">
        <ele>140.0</ele>
        <time>2014-01-21T13:21:22Z</time>
      </trkpt>
      <trkpt lat="43.525095" lon="1.424620">
        <ele>140.1</ele>
        <time>2014-01-21T13:21:34Z</time>
      </trkpt>
      <trkpt lat="43.525122" lon="1.424692">
        <ele>139.4</ele>
        <time>2014-01-21T13:22:05Z</time>
      </trkpt>
      <trkpt lat="43.525138" lon="1.424799">
        <ele>139.9</ele>
        <time>2014-01-21T13:23:32Z</time>
      </trkpt>
      <trkpt lat="43.525212" lon="1.424860">
        <ele>140.2</ele>
        <time>2014-01-21T13:23:58Z</time>
      </trkpt>
      <trkpt lat="43.525319" lon="1.424894">
        <ele>140.4</ele>
        <time>2014-01-21T13:24:16Z</time>
      </trkpt>
      <trkpt lat="43.525423" lon="1.424986">
        <ele>140.3</ele>
        <time>2014-01-21T13:24:36Z</time>
      </trkpt>
      <trkpt lat="43.525515" lon="1.424860">
        <ele>140.3</ele>
        <time>2014-01-21T13:24:51Z</time>
      </trkpt>
      <trkpt lat="43.525573" lon="1.424741">
        <ele>140.3</ele>
        <time>2014-01-21T13:25:08Z</time>
      </trkpt>
      <trkpt lat="43.525619" lon="1.424691">
        <ele>140.6</ele>
        <time>2014-01-21T13:25:44Z</time>
      </trkpt>
      <trkpt lat="43.525693" lon="1.424803">
        <ele>141.2</ele>
        <time>2014-01-21T13:25:56Z</time>
      </trkpt>
      <trkpt lat="43.525720" lon="1.424930">
        <ele>141.5</ele>
        <time>2014-01-21T13:26:20Z</time>
      </trkpt>
      <trkpt lat="43.525754" lon="1.425092">
        <ele>140.2</ele>
        <time>2014-01-21T13:26:39Z</time>
      </trkpt>
      <trkpt lat="43.525834" lon="1.425263">
        <ele>138.5</ele>
        <time>2014-01-21T13:26:59Z</time>
      </trkpt>
      <trkpt lat="43.525921" lon="1.425288">
        <ele>138.1</ele>
        <time>2014-01-21T13:27:14Z</time>
      </trkpt>
      <trkpt lat="43.526005" lon="1.425329">
        <ele>138.0</ele>
        <time>2014-01-21T13:27:32Z</time>
      </trkpt>
      <trkpt lat="43.526129" lon="1.425362">
        <ele>138.0</ele>
        <time>2014-01-21T13:28:03Z</time>
      </trkpt>
      <trkpt lat="43.526293" lon="1.425395">
        <ele>138.4</ele>
        <time>2014-01-21T13:28:22Z</time>
      </trkpt>
      <trkpt lat="43.526411" lon="1.425282">
        <ele>138.0</ele>
        <time>2014-01-21T13:28:39Z</time>
      </trkpt>
      <trkpt lat="43.526538" lon="1.425298">
        <ele>138.3</ele>
        <time>2014-01-21T13:28:57Z</time>
      </trkpt>
      <trkpt lat="43.526679" lon="1.425326">
        <ele>138.4</ele>
        <time>2014-01-21T13:29:23Z</time>
      </trkpt>
      <trkpt lat="43.526713" lon="1.425377">
        <ele>138.7</ele>
        <time>2014-01-21T13:30:09Z</time>
      </trkpt>
      <trkpt lat="43.526730" lon="1.425416">
        <ele>138.5</ele>
        <time>2014-01-21T13:30:33Z</time>
      </trkpt>
      <trkpt lat="43.526856" lon="1.425406">
        <ele>138.7</ele>
        <time>2014-01-21T13:30:48Z</time>
      </trkpt>
      <trkpt lat="43.526945" lon="1.425391">
        <ele>138.7</ele>
        <time>2014-01-21T13:31:04Z</time>
      </trkpt>
      <trkpt lat="43.527097" lon="1.425492">
        <ele>138.1</ele>
        <time>2014-01-21T13:31:21Z</time>
      </trkpt>
      <trkpt lat="43.527168" lon="1.425610">
        <ele>137.9</ele>
        <time>2014-01-21T13:31:38Z</time>
      </trkpt>
      <trkpt lat="43.527279" lon="1.425767">
        <ele>137.8</ele>
        <time>2014-01-21T13:31:50Z</time>
      </trkpt>
      <trkpt lat="43.527376" lon="1.425901">
        <ele>138.9</ele>
        <time>2014-01-21T13:32:03Z</time>
      </trkpt>
      <trkpt lat="43.527506" lon="1.425845">
        <ele>138.4</ele>
        <time>2014-01-21T13:32:19Z</time>
      </trkpt>
      <trkpt lat="43.527541" lon="1.425671">
        <ele>137.4</ele>
        <time>2014-01-21T13:32:36Z</time>
      </trkpt>
      <trkpt lat="43.527538" lon="1.425636">
        <ele>136.6</ele>
        <time>2014-01-21T13:35:04Z</time>
      </trkpt>
      <trkpt lat="43.527459" lon="1.425574">
        <ele>137.8</ele>
        <time>2014-01-21T13:35:22Z</time>
      </trkpt>
      <trkpt lat="43.527405" lon="1.425399">
        <ele>137.4</ele>
        <time>2014-01-21T13:35:35Z</time>
      </trkpt>
      <trkpt lat="43.527334" lon="1.425231">
        <ele>137.7</ele>
        <time>2014-01-21T13:35:45Z</time>
      </trkpt>
      <trkpt lat="43.527339" lon="1.425066">
        <ele>138.4</ele>
        <time>2014-01-21T13:35:55Z</time>
      </trkpt>
      <trkpt lat="43.527327" lon="1.424886">
        <ele>138.6</ele>
        <time>2014-01-21T13:36:07Z</time>
      </trkpt>
      <trkpt lat="43.527324" lon="1.424674">
        <ele>138.2</ele>
        <time>2014-01-21T13:36:19Z</time>
      </trkpt>
      <trkpt lat="43.527302" lon="1.424475">
        <ele>138.0</ele>
        <time>2014-01-21T13:36:32Z</time>
      </trkpt>
      <trkpt lat="43.527266" lon="1.424319">
        <ele>138.3</ele>
        <time>2014-01-21T13:36:44Z</time>
      </trkpt>
      <trkpt lat="43.527222" lon="1.424153">
        <ele>138.1</ele>
        <time>2014-01-21T13:36:56Z</time>
      </trkpt>
      <trkpt lat="43.527269" lon="1.424024">
        <ele>138.2</ele>
        <time>2014-01-21T13:37:06Z</time>
      </trkpt>
      <trkpt lat="43.527311" lon="1.423875">
        <ele>138.2</ele>
        <time>2014-01-21T13:37:21Z</time>
      </trkpt>
      <trkpt lat="43.527312" lon="1.423673">
        <ele>138.0</ele>
        <time>2014-01-21T13:37:36Z</time>
      </trkpt>
      <trkpt lat="43.527260" lon="1.423521">
        <ele>137.9</ele>
        <time>2014-01-21T13:37:47Z</time>
      </trkpt>
      <trkpt lat="43.527190" lon="1.423400">
        <ele>138.3</ele>
        <time>2014-01-21T13:37:56Z</time>
      </trkpt>
      <trkpt lat="43.527114" lon="1.423268">
        <ele>138.5</ele>
        <time>2014-01-21T13:38:07Z</time>
      </trkpt>
      <trkpt lat="43.527039" lon="1.423131">
        <ele>138.7</ele>
        <time>2014-01-21T13:38:20Z</time>
      </trkpt>
      <trkpt lat="43.527020" lon="1.422938">
        <ele>138.9</ele>
        <time>2014-01-21T13:38:32Z</time>
      </trkpt>
      <trkpt lat="43.526931" lon="1.422852">
        <ele>139.3</ele>
        <time>2014-01-21T13:41:47Z</time>
      </trkpt>
      <trkpt lat="43.526816" lon="1.422850">
        <ele>139.7</ele>
        <time>2014-01-21T13:42:02Z</time>
      </trkpt>
      <trkpt lat="43.526798" lon="1.422641">
        <ele>140.2</ele>
        <time>2014-01-21T13:42:16Z</time>
      </trkpt>
      <trkpt lat="43.526853" lon="1.422476">
        <ele>139.7</ele>
        <time>2014-01-21T13:42:29Z</time>
      </trkpt>
      <trkpt lat="43.526890" lon="1.422336">
        <ele>140.4</ele>
        <time>2014-01-21T13:42:47Z</time>
      </trkpt>
      <trkpt lat="43.526880" lon="1.422187">
        <ele>140.7</ele>
        <time>2014-01-21T13:43:04Z</time>
      </trkpt>
      <trkpt lat="43.526858" lon="1.422034">
        <ele>140.4</ele>
        <time>2014-01-21T13:43:16Z</time>
      </trkpt>
      <trkpt lat="43.526824" lon="1.421843">
        <ele>140.2</ele>
        <time>2014-01-21T13:43:29Z</time>
      </trkpt>
      <trkpt lat="43.526810" lon="1.421642">
        <ele>140.2</ele>
        <time>2014-01-21T13:43:42Z</time>
      </trkpt>
      <trkpt lat="43.526766" lon="1.421492">
        <ele>140.2</ele>
        <time>2014-01-21T13:43:54Z</time>
      </trkpt>
      <trkpt lat="43.526716" lon="1.421330">
        <ele>140.2</ele>
        <time>2014-01-21T13:44:08Z</time>
      </trkpt>
      <trkpt lat="43.526688" lon="1.421186">
        <ele>140.5</ele>
        <time>2014-01-21T13:44:23Z</time>
      </trkpt>
      <trkpt lat="43.526652" lon="1.421132">
        <ele>140.7</ele>
        <time>2014-01-21T13:45:26Z</time>
      </trkpt>
      <trkpt lat="43.526652" lon="1.420955">
        <ele>140.4</ele>
        <time>2014-01-21T13:45:42Z</time>
      </trkpt>
      <trkpt lat="43.526665" lon="1.420753">
        <ele>140.9</ele>
        <time>2014-01-21T13:46:00Z</time>
      </trkpt>
      <trkpt lat="43.526808" lon="1.420677">
        <ele>141.0</ele>
        <time>2014-01-21T13:46:17Z</time>
      </trkpt>
      <trkpt lat="43.526921" lon="1.420562">
        <ele>140.4</ele>
        <time>2014-01-21T13:46:33Z</time>
      </trkpt>
      <trkpt lat="43.526866" lon="1.420430">
        <ele>140.8</ele>
        <time>2014-01-21T13:46:55Z</time>
      </trkpt>
      <trkpt lat="43.526820" lon="1.420298">
        <ele>141.8</ele>
        <time>2014-01-21T13:47:09Z</time>
      </trkpt>
      <trkpt lat="43.526786" lon="1.420131">
        <ele>141.4</ele>
        <time>2014-01-21T13:47:28Z</time>
      </trkpt>
      <trkpt lat="43.526783" lon="1.420005">
        <ele>140.9</ele>
        <time>2014-01-21T13:47:46Z</time>
      </trkpt>
      <trkpt lat="43.526690" lon="1.420024">
        <ele>140.6</ele>
        <time>2014-01-21T13:48:01Z</time>
      </trkpt>
      <trkpt lat="43.526641" lon="1.419925">
        <ele>140.9</ele>
        <time>2014-01-21T13:48:19Z</time>
      </trkpt>
      <trkpt lat="43.526608" lon="1.419762">
        <ele>140.9</ele>
        <time>2014-01-21T13:48:37Z</time>
      </trkpt>
      <trkpt lat="43.526565" lon="1.419781">
        <ele>140.6</ele>
        <time>2014-01-21T13:48:49Z</time>
      </trkpt>
      <trkpt lat="43.526498" lon="1.419855">
        <ele>140.8</ele>
        <time>2014-01-21T13:49:05Z</time>
      </trkpt>
      <trkpt lat="43.526478" lon="1.419699">
        <ele>140.8</ele>
        <time>2014-01-21T13:49:24Z</time>
      </trkpt>
      <trkpt lat="43.526508" lon="1.419526">
        <ele>140.8</ele>
        <time>2014-01-21T13:49:39Z</time>
      </trkpt>
      <trkpt lat="43.526496" lon="1.419349">
        <ele>140.7</ele>
        <time>2014-01-21T13:49:57Z</time>
      </trkpt>
      <trkpt lat="43.526484" lon="1.419196">
        <ele>141.2</ele>
        <time>2014-01-21T13:50:10Z</time>
      </trkpt>
      <trkpt lat="43.526464" lon="1.418998">
        <ele>141.8</ele>
        <time>2014-01-21T13:50:24Z</time>
      </trkpt>
      <trkpt lat="43.526490" lon="1.418838">
        <ele>141.9</ele>
        <time>2014-01-21T13:50:36Z</time>
      </trkpt>
      <trkpt lat="43.526508" lon="1.418698">
        <ele>141.7</ele>
        <time>2014-01-21T13:50:48Z</time>
      </trkpt>
      <trkpt lat="43.526451" lon="1.418532">
        <ele>142.5</ele>
        <time>2014-01-21T14:04:10Z</time>
      </trkpt>
      <trkpt lat="43.526406" lon="1.418368">
        <ele>142.6</ele>
        <time>2014-01-21T14:04:21Z</time>
      </trkpt>
      <trkpt lat="43.526337" lon="1.418243">
        <ele>142.7</ele>
        <time>2014-01-21T14:04:31Z</time>
      </trkpt>
      <trkpt lat="43.526287" lon="1.418090">
        <ele>142.9</ele>
        <time>2014-01-21T14:04:42Z</time>
      </trkpt>
      <trkpt lat="43.526238" lon="1.417929">
        <ele>142.7</ele>
        <time>2014-01-21T14:04:53Z</time>
      </trkpt>
      <trkpt lat="43.526196" lon="1.417797">
        <ele>142.8</ele>
        <time>2014-01-21T14:05:02Z</time>
      </trkpt>
      <trkpt lat="43.526127" lon="1.417695">
        <ele>142.8</ele>
        <time>2014-01-21T14:05:12Z</time>
      </trkpt>
      <trkpt lat="43.526040" lon="1.417593">
        <ele>143.0</ele>
        <time>2014-01-21T14:05:23Z</time>
      </trkpt>
      <trkpt lat="43.525954" lon="1.417504">
        <ele>142.9</ele>
        <time>2014-01-21T14:05:33Z</time>
      </trkpt>
      <trkpt lat="43.525883" lon="1.417413">
        <ele>143.0</ele>
        <time>2014-01-21T14:05:42Z</time>
      </trkpt>
      <trkpt lat="43.525809" lon="1.417314">
        <ele>143.5</ele>
        <time>2014-01-21T14:05:53Z</time>
      </trkpt>
      <trkpt lat="43.525771" lon="1.417168">
        <ele>143.5</ele>
        <time>2014-01-21T14:06:04Z</time>
      </trkpt>
      <trkpt lat="43.525700" lon="1.417065">
        <ele>143.6</ele>
        <time>2014-01-21T14:06:15Z</time>
      </trkpt>
      <trkpt lat="43.525676" lon="1.416933">
        <ele>144.0</ele>
        <time>2014-01-21T14:06:25Z</time>
      </trkpt>
      <trkpt lat="43.525644" lon="1.416799">
        <ele>143.8</ele>
        <time>2014-01-21T14:06:35Z</time>
      </trkpt>
      <trkpt lat="43.525595" lon="1.416688">
        <ele>143.5</ele>
        <time>2014-01-21T14:06:46Z</time>
      </trkpt>
      <trkpt lat="43.525583" lon="1.416564">
        <ele>142.7</ele>
        <time>2014-01-21T14:06:59Z</time>
      </trkpt>
      <trkpt lat="43.525539" lon="1.416450">
        <ele>142.6</ele>
        <time>2014-01-21T14:07:35Z</time>
      </trkpt>
      <trkpt lat="43.525451" lon="1.416475">
        <ele>142.9</ele>
        <time>2014-01-21T14:07:45Z</time>
      </trkpt>
      <trkpt lat="43.525364" lon="1.416455">
        <ele>143.7</ele>
        <time>2014-01-21T14:07:57Z</time>
      </trkpt>
      <trkpt lat="43.525271" lon="1.416402">
        <ele>143.9</ele>
        <time>2014-01-21T14:08:08Z</time>
      </trkpt>
      <trkpt lat="43.525178" lon="1.416331">
        <ele>143.5</ele>
        <time>2014-01-21T14:08:19Z</time>
      </trkpt>
      <trkpt lat="43.525070" lon="1.416269">
        <ele>143.4</ele>
        <time>2014-01-21T14:08:32Z</time>
      </trkpt>
      <trkpt lat="43.524953" lon="1.416175">
        <ele>143.5</ele>
        <time>2014-01-21T14:08:43Z</time>
      </trkpt>
      <trkpt lat="43.524873" lon="1.416098">
        <ele>143.7</ele>
        <time>2014-01-21T14:08:53Z</time>
      </trkpt>
      <trkpt lat="43.524784" lon="1.415981">
        <ele>143.6</ele>
        <time>2014-01-21T14:09:05Z</time>
      </trkpt>
      <trkpt lat="43.524695" lon="1.415872">
        <ele>143.3</ele>
        <time>2014-01-21T14:09:24Z</time>
      </trkpt>
      <trkpt lat="43.524621" lon="1.415769">
        <ele>143.6</ele>
        <time>2014-01-21T14:09:46Z</time>
      </trkpt>
      <trkpt lat="43.524522" lon="1.415711">
        <ele>143.9</ele>
        <time>2014-01-21T14:09:57Z</time>
      </trkpt>
      <trkpt lat="43.524401" lon="1.415657">
        <ele>143.8</ele>
        <time>2014-01-21T14:10:10Z</time>
      </trkpt>
      <trkpt lat="43.524292" lon="1.415611">
        <ele>143.8</ele>
        <time>2014-01-21T14:10:20Z</time>
      </trkpt>
      <trkpt lat="43.524201" lon="1.415493">
        <ele>143.9</ele>
        <time>2014-01-21T14:10:31Z</time>
      </trkpt>
      <trkpt lat="43.524105" lon="1.415408">
        <ele>144.1</ele>
        <time>2014-01-21T14:10:42Z</time>
      </trkpt>
      <trkpt lat="43.523990" lon="1.415349">
        <ele>144.0</ele>
        <time>2014-01-21T14:10:54Z</time>
      </trkpt>
      <trkpt lat="43.523876" lon="1.415302">
        <ele>144.1</ele>
        <time>2014-01-21T14:11:06Z</time>
      </trkpt>
      <trkpt lat="43.523765" lon="1.415250">
        <ele>144.0</ele>
        <time>2014-01-21T14:11:18Z</time>
      </trkpt>
      <trkpt lat="43.523659" lon="1.415179">
        <ele>143.8</ele>
        <time>2014-01-21T14:11:29Z</time>
      </trkpt>
      <trkpt lat="43.523553" lon="1.415118">
        <ele>143.5</ele>
        <time>2014-01-21T14:11:42Z</time>
      </trkpt>
      <trkpt lat="43.523433" lon="1.415092">
        <ele>143.7</ele>
        <time>2014-01-21T14:11:55Z</time>
      </trkpt>
      <trkpt lat="43.523322" lon="1.415042">
        <ele>144.0</ele>
        <time>2014-01-21T14:12:07Z</time>
      </trkpt>
      <trkpt lat="43.523198" lon="1.415013">
        <ele>144.5</ele>
        <time>2014-01-21T14:12:21Z</time>
      </trkpt>
      <trkpt lat="43.523069" lon="1.414964">
        <ele>144.4</ele>
        <time>2014-01-21T14:12:35Z</time>
      </trkpt>
      <trkpt lat="43.522999" lon="1.414847">
        <ele>143.4</ele>
        <time>2014-01-21T14:12:49Z</time>
      </trkpt>
      <trkpt lat="43.522977" lon="1.414782">
        <ele>141.9</ele>
        <time>2014-01-21T14:14:05Z</time>
      </trkpt>
      <trkpt lat="43.522871" lon="1.414773">
        <ele>142.3</ele>
        <time>2014-01-21T14:14:20Z</time>
      </trkpt>
      <trkpt lat="43.522760" lon="1.414686">
        <ele>142.3</ele>
        <time>2014-01-21T14:14:30Z</time>
      </trkpt>
      <trkpt lat="43.522655" lon="1.414623">
        <ele>142.4</ele>
        <time>2014-01-21T14:14:40Z</time>
      </trkpt>
      <trkpt lat="43.522560" lon="1.414505">
        <ele>142.6</ele>
        <time>2014-01-21T14:14:51Z</time>
      </trkpt>
      <trkpt lat="43.522470" lon="1.414378">
        <ele>142.3</ele>
        <time>2014-01-21T14:15:02Z</time>
      </trkpt>
      <trkpt lat="43.522370" lon="1.414317">
        <ele>142.4</ele>
        <time>2014-01-21T14:15:13Z</time>
      </trkpt>
      <trkpt lat="43.522288" lon="1.414217">
        <ele>142.7</ele>
        <time>2014-01-21T14:15:26Z</time>
      </trkpt>
      <trkpt lat="43.522194" lon="1.414120">
        <ele>142.1</ele>
        <time>2014-01-21T14:15:39Z</time>
      </trkpt>
      <trkpt lat="43.522089" lon="1.414083">
        <ele>142.8</ele>
        <time>2014-01-21T14:15:56Z</time>
      </trkpt>
      <trkpt lat="43.521966" lon="1.414059">
        <ele>142.9</ele>
        <time>2014-01-21T14:16:10Z</time>
      </trkpt>
      <trkpt lat="43.521857" lon="1.413928">
        <ele>142.9</ele>
        <time>2014-01-21T14:16:23Z</time>
      </trkpt>
      <trkpt lat="43.521756" lon="1.413869">
        <ele>143.0</ele>
        <time>2014-01-21T14:16:33Z</time>
      </trkpt>
      <trkpt lat="43.521645" lon="1.413871">
        <ele>143.2</ele>
        <time>2014-01-21T14:16:45Z</time>
      </trkpt>
      <trkpt lat="43.521534" lon="1.413845">
        <ele>143.7</ele>
        <time>2014-01-21T14:17:00Z</time>
      </trkpt>
      <trkpt lat="43.521428" lon="1.413802">
        <ele>143.8</ele>
        <time>2014-01-21T14:17:30Z</time>
      </trkpt>
      <trkpt lat="43.521310" lon="1.413738">
        <ele>143.6</ele>
        <time>2014-01-21T14:17:42Z</time>
      </trkpt>
      <trkpt lat="43.521273" lon="1.413641">
        <ele>143.4</ele>
        <time>2014-01-21T14:18:31Z</time>
      </trkpt>
      <trkpt lat="43.521247" lon="1.413651">
        <ele>143.1</ele>
        <time>2014-01-21T14:20:20Z</time>
      </trkpt>
      <trkpt lat="43.521118" lon="1.413629">
        <ele>143.2</ele>
        <time>2014-01-21T14:20:32Z</time>
      </trkpt>
      <trkpt lat="43.521028" lon="1.413533">
        <ele>143.5</ele>
        <time>2014-01-21T14:20:42Z</time>
      </trkpt>
      <trkpt lat="43.520925" lon="1.413472">
        <ele>143.8</ele>
        <time>2014-01-21T14:20:54Z</time>
      </trkpt>
      <trkpt lat="43.520808" lon="1.413409">
        <ele>144.0</ele>
        <time>2014-01-21T14:21:04Z</time>
      </trkpt>
      <trkpt lat="43.520718" lon="1.413336">
        <ele>143.9</ele>
        <time>2014-01-21T14:21:14Z</time>
      </trkpt>
      <trkpt lat="43.520629" lon="1.413295">
        <ele>144.0</ele>
        <time>2014-01-21T14:21:26Z</time>
      </trkpt>
      <trkpt lat="43.520502" lon="1.413249">
        <ele>143.8</ele>
        <time>2014-01-21T14:21:39Z</time>
      </trkpt>
      <trkpt lat="43.520397" lon="1.413197">
        <ele>143.9</ele>
        <time>2014-01-21T14:21:50Z</time>
      </trkpt>
      <trkpt lat="43.520297" lon="1.413129">
        <ele>143.9</ele>
        <time>2014-01-21T14:22:02Z</time>
      </trkpt>
      <trkpt lat="43.520215" lon="1.413012">
        <ele>143.8</ele>
        <time>2014-01-21T14:22:14Z</time>
      </trkpt>
      <trkpt lat="43.520125" lon="1.412887">
        <ele>143.6</ele>
        <time>2014-01-21T14:22:27Z</time>
      </trkpt>
      <trkpt lat="43.520007" lon="1.412833">
        <ele>143.3</ele>
        <time>2014-01-21T14:22:38Z</time>
      </trkpt>
      <trkpt lat="43.519910" lon="1.412776">
        <ele>143.5</ele>
        <time>2014-01-21T14:22:49Z</time>
      </trkpt>
      <trkpt lat="43.519813" lon="1.412756">
        <ele>143.9</ele>
        <time>2014-01-21T14:23:02Z</time>
      </trkpt>
      <trkpt lat="43.519697" lon="1.412830">
        <ele>143.9</ele>
        <time>2014-01-21T14:23:13Z</time>
      </trkpt>
      <trkpt lat="43.519623" lon="1.412900">
        <ele>144.2</ele>
        <time>2014-01-21T14:23:27Z</time>
      </trkpt>
      <trkpt lat="43.519539" lon="1.412759">
        <ele>144.1</ele>
        <time>2014-01-21T14:23:38Z</time>
      </trkpt>
      <trkpt lat="43.519478" lon="1.412652">
        <ele>144.1</ele>
        <time>2014-01-21T14:23:48Z</time>
      </trkpt>
      <trkpt lat="43.519424" lon="1.412552">
        <ele>144.0</ele>
        <time>2014-01-21T14:23:58Z</time>
      </trkpt>
      <trkpt lat="43.519347" lon="1.412485">
        <ele>143.9</ele>
        <time>2014-01-21T14:24:08Z</time>
      </trkpt>
      <trkpt lat="43.519282" lon="1.412382">
        <ele>144.0</ele>
        <time>2014-01-21T14:24:22Z</time>
      </trkpt>
      <trkpt lat="43.519197" lon="1.412270">
        <ele>144.1</ele>
        <time>2014-01-21T14:24:36Z</time>
      </trkpt>
      <trkpt lat="43.519119" lon="1.412189">
        <ele>144.1</ele>
        <time>2014-01-21T14:24:45Z</time>
      </trkpt>
      <trkpt lat="43.519034" lon="1.412112">
        <ele>144.4</ele>
        <time>2014-01-21T14:24:54Z</time>
      </trkpt>
      <trkpt lat="43.518948" lon="1.412045">
        <ele>144.6</ele>
        <time>2014-01-21T14:25:02Z</time>
      </trkpt>
      <trkpt lat="43.518878" lon="1.411957">
        <ele>144.8</ele>
        <time>2014-01-21T14:25:10Z</time>
      </trkpt>
      <trkpt lat="43.518806" lon="1.411874">
        <ele>145.2</ele>
        <time>2014-01-21T14:25:19Z</time>
      </trkpt>
      <trkpt lat="43.518746" lon="1.411761">
        <ele>145.3</ele>
        <time>2014-01-21T14:25:28Z</time>
      </trkpt>
      <trkpt lat="43.518690" lon="1.411616">
        <ele>145.1</ele>
        <time>2014-01-21T14:25:37Z</time>
      </trkpt>
      <trkpt lat="43.518638" lon="1.411504">
        <ele>144.6</ele>
        <time>2014-01-21T14:25:46Z</time>
      </trkpt>
      <trkpt lat="43.518564" lon="1.411409">
        <ele>144.6</ele>
        <time>2014-01-21T14:25:55Z</time>
      </trkpt>
      <trkpt lat="43.518489" lon="1.411319">
        <ele>144.8</ele>
        <time>2014-01-21T14:26:04Z</time>
      </trkpt>
      <trkpt lat="43.518467" lon="1.411233">
        <ele>145.2</ele>
        <time>2014-01-21T14:26:29Z</time>
      </trkpt>
      <trkpt lat="43.518459" lon="1.411211">
        <ele>144.1</ele>
        <time>2014-01-21T14:27:26Z</time>
      </trkpt>
      <trkpt lat="43.518364" lon="1.411201">
        <ele>145.3</ele>
        <time>2014-01-21T14:27:35Z</time>
      </trkpt>
      <trkpt lat="43.518286" lon="1.411129">
        <ele>145.2</ele>
        <time>2014-01-21T14:27:43Z</time>
      </trkpt>
      <trkpt lat="43.518201" lon="1.411053">
        <ele>145.2</ele>
        <time>2014-01-21T14:27:52Z</time>
      </trkpt>
      <trkpt lat="43.518110" lon="1.410997">
        <ele>145.2</ele>
        <time>2014-01-21T14:28:00Z</time>
      </trkpt>
      <trkpt lat="43.518004" lon="1.410934">
        <ele>145.1</ele>
        <time>2014-01-21T14:28:10Z</time>
      </trkpt>
      <trkpt lat="43.517930" lon="1.410857">
        <ele>144.7</ele>
        <time>2014-01-21T14:28:20Z</time>
      </trkpt>
      <trkpt lat="43.517841" lon="1.410831">
        <ele>145.0</ele>
        <time>2014-01-21T14:30:08Z</time>
      </trkpt>
      <trkpt lat="43.517761" lon="1.410919">
        <ele>146.6</ele>
        <time>2014-01-21T14:30:20Z</time>
      </trkpt>
      <trkpt lat="43.517763" lon="1.411044">
        <ele>147.0</ele>
        <time>2014-01-21T14:30:33Z</time>
      </trkpt>
      <trkpt lat="43.517803" lon="1.411168">
        <ele>147.3</ele>
        <time>2014-01-21T14:30:50Z</time>
      </trkpt>
      <trkpt lat="43.517805" lon="1.411348">
        <ele>147.7</ele>
        <time>2014-01-21T14:31:10Z</time>
      </trkpt>
      <trkpt lat="43.517832" lon="1.411482">
        <ele>147.6</ele>
        <time>2014-01-21T14:31:37Z</time>
      </trkpt>
      <trkpt lat="43.517877" lon="1.411631">
        <ele>147.1</ele>
        <time>2014-01-21T14:31:50Z</time>
      </trkpt>
      <trkpt lat="43.517917" lon="1.411779">
        <ele>147.2</ele>
        <time>2014-01-21T14:32:01Z</time>
      </trkpt>
      <trkpt lat="43.518003" lon="1.411897">
        <ele>146.9</ele>
        <time>2014-01-21T14:32:12Z</time>
      </trkpt>
      <trkpt lat="43.518090" lon="1.411985">
        <ele>146.4</ele>
        <time>2014-01-21T14:32:23Z</time>
      </trkpt>
      <trkpt lat="43.518177" lon="1.412070">
        <ele>147.2</ele>
        <time>2014-01-21T14:32:34Z</time>
      </trkpt>
      <trkpt lat="43.518259" lon="1.412166">
        <ele>147.0</ele>
        <time>2014-01-21T14:32:46Z</time>
      </trkpt>
      <trkpt lat="43.518377" lon="1.412257">
        <ele>146.8</ele>
        <time>2014-01-21T14:32:58Z</time>
      </trkpt>
      <trkpt lat="43.518517" lon="1.412361">
        <ele>146.9</ele>
        <time>2014-01-21T14:33:12Z</time>
      </trkpt>
      <trkpt lat="43.518687" lon="1.412446">
        <ele>146.8</ele>
        <time>2014-01-21T14:33:23Z</time>
      </trkpt>
      <trkpt lat="43.518803" lon="1.412529">
        <ele>146.5</ele>
        <time>2014-01-21T14:33:32Z</time>
      </trkpt>
      <trkpt lat="43.518926" lon="1.412628">
        <ele>146.7</ele>
        <time>2014-01-21T14:33:43Z</time>
      </trkpt>
      <trkpt lat="43.519046" lon="1.412784">
        <ele>146.5</ele>
        <time>2014-01-21T14:33:54Z</time>
      </trkpt>
      <trkpt lat="43.519137" lon="1.412897">
        <ele>146.6</ele>
        <time>2014-01-21T14:34:04Z</time>
      </trkpt>
      <trkpt lat="43.519214" lon="1.412982">
        <ele>146.5</ele>
        <time>2014-01-21T14:34:13Z</time>
      </trkpt>
      <trkpt lat="43.519282" lon="1.413084">
        <ele>146.4</ele>
        <time>2014-01-21T14:34:21Z</time>
      </trkpt>
      <trkpt lat="43.519377" lon="1.413157">
        <ele>146.1</ele>
        <time>2014-01-21T14:34:29Z</time>
      </trkpt>
      <trkpt lat="43.519468" lon="1.413230">
        <ele>145.9</ele>
        <time>2014-01-21T14:34:37Z</time>
      </trkpt>
      <trkpt lat="43.519569" lon="1.413292">
        <ele>145.9</ele>
        <time>2014-01-21T14:34:45Z</time>
      </trkpt>
      <trkpt lat="43.519668" lon="1.413362">
        <ele>145.9</ele>
        <time>2014-01-21T14:34:53Z</time>
      </trkpt>
      <trkpt lat="43.519722" lon="1.413482">
        <ele>145.7</ele>
        <time>2014-01-21T14:35:01Z</time>
      </trkpt>
      <trkpt lat="43.519791" lon="1.413600">
        <ele>145.1</ele>
        <time>2014-01-21T14:35:09Z</time>
      </trkpt>
      <trkpt lat="43.519835" lon="1.413733">
        <ele>145.3</ele>
        <time>2014-01-21T14:35:17Z</time>
      </trkpt>
      <trkpt lat="43.519867" lon="1.413869">
        <ele>145.9</ele>
        <time>2014-01-21T14:35:25Z</time>
      </trkpt>
      <trkpt lat="43.519941" lon="1.413986">
        <ele>145.9</ele>
        <time>2014-01-21T14:35:33Z</time>
      </trkpt>
      <trkpt lat="43.520023" lon="1.414102">
        <ele>146.1</ele>
        <time>2014-01-21T14:35:42Z</time>
      </trkpt>
      <trkpt lat="43.520082" lon="1.414230">
        <ele>146.3</ele>
        <time>2014-01-21T14:35:51Z</time>
      </trkpt>
      <trkpt lat="43.520134" lon="1.414356">
        <ele>146.2</ele>
        <time>2014-01-21T14:35:59Z</time>
      </trkpt>
      <trkpt lat="43.520179" lon="1.414482">
        <ele>146.1</ele>
        <time>2014-01-21T14:36:07Z</time>
      </trkpt>
      <trkpt lat="43.520248" lon="1.414600">
        <ele>145.8</ele>
        <time>2014-01-21T14:36:15Z</time>
      </trkpt>
      <trkpt lat="43.520322" lon="1.414670">
        <ele>145.6</ele>
        <time>2014-01-21T14:36:23Z</time>
      </trkpt>
      <trkpt lat="43.520411" lon="1.414759">
        <ele>145.6</ele>
        <time>2014-01-21T14:36:33Z</time>
      </trkpt>
      <trkpt lat="43.520529" lon="1.414815">
        <ele>145.8</ele>
        <time>2014-01-21T14:36:44Z</time>
      </trkpt>
      <trkpt lat="43.520626" lon="1.414927">
        <ele>145.7</ele>
        <time>2014-01-21T14:36:54Z</time>
      </trkpt>
      <trkpt lat="43.520556" lon="1.415075">
        <ele>145.9</ele>
        <time>2014-01-21T14:37:05Z</time>
      </trkpt>
      <trkpt lat="43.520580" lon="1.415204">
        <ele>145.6</ele>
        <time>2014-01-21T14:38:20Z</time>
      </trkpt>
      <trkpt lat="43.520650" lon="1.415305">
        <ele>145.1</ele>
        <time>2014-01-21T14:38:37Z</time>
      </trkpt>
      <trkpt lat="43.520708" lon="1.415313">
        <ele>145.4</ele>
        <time>2014-01-21T14:39:48Z</time>
      </trkpt>
      <trkpt lat="43.520806" lon="1.415350">
        <ele>145.1</ele>
        <time>2014-01-21T14:39:59Z</time>
      </trkpt>
      <trkpt lat="43.520869" lon="1.415426">
        <ele>145.3</ele>
        <time>2014-01-21T14:40:18Z</time>
      </trkpt>
      <trkpt lat="43.520920" lon="1.415416">
        <ele>145.2</ele>
        <time>2014-01-21T14:41:15Z</time>
      </trkpt>
      <trkpt lat="43.521003" lon="1.415479">
        <ele>145.3</ele>
        <time>2014-01-21T14:41:25Z</time>
      </trkpt>
      <trkpt lat="43.521091" lon="1.415549">
        <ele>145.1</ele>
        <time>2014-01-21T14:41:37Z</time>
      </trkpt>
      <trkpt lat="43.521201" lon="1.415626">
        <ele>145.1</ele>
        <time>2014-01-21T14:41:48Z</time>
      </trkpt>
      <trkpt lat="43.521323" lon="1.415660">
        <ele>145.3</ele>
        <time>2014-01-21T14:41:59Z</time>
      </trkpt>
      <trkpt lat="43.521425" lon="1.415721">
        <ele>144.4</ele>
        <time>2014-01-21T14:42:09Z</time>
      </trkpt>
      <trkpt lat="43.521518" lon="1.415786">
        <ele>144.8</ele>
        <time>2014-01-21T14:42:20Z</time>
      </trkpt>
      <trkpt lat="43.521646" lon="1.415834">
        <ele>144.9</ele>
        <time>2014-01-21T14:42:30Z</time>
      </trkpt>
      <trkpt lat="43.521774" lon="1.415837">
        <ele>144.9</ele>
        <time>2014-01-21T14:42:40Z</time>
      </trkpt>
      <trkpt lat="43.521891" lon="1.415875">
        <ele>145.2</ele>
        <time>2014-01-21T14:42:50Z</time>
      </trkpt>
      <trkpt lat="43.521999" lon="1.415928">
        <ele>145.3</ele>
        <time>2014-01-21T14:42:59Z</time>
      </trkpt>
      <trkpt lat="43.522130" lon="1.416009">
        <ele>145.4</ele>
        <time>2014-01-21T14:43:09Z</time>
      </trkpt>
      <trkpt lat="43.522226" lon="1.416101">
        <ele>145.6</ele>
        <time>2014-01-21T14:43:20Z</time>
      </trkpt>
      <trkpt lat="43.522335" lon="1.416156">
        <ele>145.6</ele>
        <time>2014-01-21T14:43:30Z</time>
      </trkpt>
      <trkpt lat="43.522488" lon="1.416270">
        <ele>145.4</ele>
        <time>2014-01-21T14:43:43Z</time>
      </trkpt>
      <trkpt lat="43.522521" lon="1.416399">
        <ele>145.1</ele>
        <time>2014-01-21T14:43:58Z</time>
      </trkpt>
      <trkpt lat="43.522471" lon="1.416466">
        <ele>144.6</ele>
        <time>2014-01-21T14:44:32Z</time>
      </trkpt>
      <trkpt lat="43.522547" lon="1.416500">
        <ele>145.1</ele>
        <time>2014-01-21T14:44:48Z</time>
      </trkpt>
      <trkpt lat="43.522660" lon="1.416615">
        <ele>145.2</ele>
        <time>2014-01-21T14:45:00Z</time>
      </trkpt>
      <trkpt lat="43.522764" lon="1.416722">
        <ele>145.0</ele>
        <time>2014-01-21T14:45:12Z</time>
      </trkpt>
      <trkpt lat="43.522914" lon="1.416871">
        <ele>145.1</ele>
        <time>2014-01-21T14:45:23Z</time>
      </trkpt>
      <trkpt lat="43.522989" lon="1.417010">
        <ele>145.6</ele>
        <time>2014-01-21T14:45:32Z</time>
      </trkpt>
      <trkpt lat="43.523062" lon="1.417158">
        <ele>146.1</ele>
        <time>2014-01-21T14:45:43Z</time>
      </trkpt>
      <trkpt lat="43.523099" lon="1.417335">
        <ele>146.0</ele>
        <time>2014-01-21T14:45:55Z</time>
      </trkpt>
      <trkpt lat="43.523162" lon="1.417492">
        <ele>146.0</ele>
        <time>2014-01-21T14:46:07Z</time>
      </trkpt>
      <trkpt lat="43.523221" lon="1.417624">
        <ele>146.1</ele>
        <time>2014-01-21T14:46:20Z</time>
      </trkpt>
      <trkpt lat="43.523276" lon="1.417757">
        <ele>146.2</ele>
        <time>2014-01-21T14:46:31Z</time>
      </trkpt>
      <trkpt lat="43.523326" lon="1.417887">
        <ele>146.1</ele>
        <time>2014-01-21T14:46:41Z</time>
      </trkpt>
      <trkpt lat="43.523428" lon="1.418016">
        <ele>146.1</ele>
        <time>2014-01-21T14:46:51Z</time>
      </trkpt>
      <trkpt lat="43.523541" lon="1.418137">
        <ele>146.4</ele>
        <time>2014-01-21T14:47:02Z</time>
      </trkpt>
      <trkpt lat="43.523646" lon="1.418272">
        <ele>146.2</ele>
        <time>2014-01-21T14:47:12Z</time>
      </trkpt>
      <trkpt lat="43.523747" lon="1.418368">
        <ele>146.4</ele>
        <time>2014-01-21T14:47:21Z</time>
      </trkpt>
      <trkpt lat="43.523835" lon="1.418472">
        <ele>146.6</ele>
        <time>2014-01-21T14:47:30Z</time>
      </trkpt>
      <trkpt lat="43.523923" lon="1.418588">
        <ele>146.4</ele>
        <time>2014-01-21T14:47:39Z</time>
      </trkpt>
      <trkpt lat="43.523999" lon="1.418666">
        <ele>146.4</ele>
        <time>2014-01-21T14:47:48Z</time>
      </trkpt>
      <trkpt lat="43.524036" lon="1.418762">
        <ele>146.5</ele>
        <time>2014-01-21T14:47:57Z</time>
      </trkpt>
      <trkpt lat="43.523979" lon="1.418888">
        <ele>146.8</ele>
        <time>2014-01-21T14:48:06Z</time>
      </trkpt>
      <trkpt lat="43.523956" lon="1.419049">
        <ele>147.0</ele>
        <time>2014-01-21T14:48:15Z</time>
      </trkpt>
      <trkpt lat="43.523939" lon="1.419171">
        <ele>146.4</ele>
        <time>2014-01-21T14:48:23Z</time>
      </trkpt>
      <trkpt lat="43.523891" lon="1.419242">
        <ele>146.3</ele>
        <time>2014-01-21T14:49:45Z</time>
      </trkpt>
      <trkpt lat="43.523831" lon="1.419388">
        <ele>146.4</ele>
        <time>2014-01-21T14:49:56Z</time>
      </trkpt>
      <trkpt lat="43.523754" lon="1.419526">
        <ele>146.1</ele>
        <time>2014-01-21T14:50:06Z</time>
      </trkpt>
      <trkpt lat="43.523683" lon="1.419663">
        <ele>145.9</ele>
        <time>2014-01-21T14:50:18Z</time>
      </trkpt>
      <trkpt lat="43.523623" lon="1.419790">
        <ele>146.1</ele>
        <time>2014-01-21T14:50:27Z</time>
      </trkpt>
      <trkpt lat="43.523568" lon="1.419899">
        <ele>146.3</ele>
        <time>2014-01-21T14:50:37Z</time>
      </trkpt>
      <trkpt lat="43.523489" lon="1.420041">
        <ele>146.1</ele>
        <time>2014-01-21T14:50:47Z</time>
      </trkpt>
      <trkpt lat="43.523412" lon="1.420112">
        <ele>146.2</ele>
        <time>2014-01-21T14:50:56Z</time>
      </trkpt>
      <trkpt lat="43.523353" lon="1.420210">
        <ele>146.4</ele>
        <time>2014-01-21T14:51:04Z</time>
      </trkpt>
      <trkpt lat="43.523300" lon="1.420330">
        <ele>146.1</ele>
        <time>2014-01-21T14:51:13Z</time>
      </trkpt>
      <trkpt lat="43.523235" lon="1.420450">
        <ele>146.2</ele>
        <time>2014-01-21T14:51:26Z</time>
      </trkpt>
      <trkpt lat="43.523208" lon="1.420622">
        <ele>146.5</ele>
        <time>2014-01-21T14:51:35Z</time>
      </trkpt>
      <trkpt lat="43.523180" lon="1.420777">
        <ele>146.4</ele>
        <time>2014-01-21T14:51:44Z</time>
      </trkpt>
      <trkpt lat="43.523100" lon="1.420885">
        <ele>146.1</ele>
        <time>2014-01-21T14:51:53Z</time>
      </trkpt>
      <trkpt lat="43.523062" lon="1.421012">
        <ele>146.1</ele>
        <time>2014-01-21T14:52:02Z</time>
      </trkpt>
      <trkpt lat="43.523004" lon="1.421127">
        <ele>146.2</ele>
        <time>2014-01-21T14:52:11Z</time>
      </trkpt>
      <trkpt lat="43.522935" lon="1.421285">
        <ele>146.4</ele>
        <time>2014-01-21T14:52:24Z</time>
      </trkpt>
      <trkpt lat="43.522847" lon="1.421354">
        <ele>146.4</ele>
        <time>2014-01-21T14:52:34Z</time>
      </trkpt>
      <trkpt lat="43.522719" lon="1.421388">
        <ele>146.4</ele>
        <time>2014-01-21T14:52:45Z</time>
      </trkpt>
    </trkseg>
  </trk>
</gpx>

